createdAt,value
2019-03-10T00:04:58.135Z,4.13
2019-03-10T00:07:26.417Z,2.57
2019-03-10T00:09:54.609Z,3.63
2019-03-10T00:12:23.398Z,5.33
2019-03-10T00:14:51.865Z,4.17
2019-03-10T00:17:20.158Z,5.30
2019-03-10T00:19:48.084Z,4.87
2019-03-10T00:22:16.716Z,3.00
2019-03-10T00:24:45.490Z,7.60
2019-03-10T00:27:13.693Z,4.20
2019-03-10T00:29:42.270Z,4.90
2019-03-10T00:32:10.154Z,4.73
2019-03-10T00:34:38.054Z,3.80
2019-03-10T00:37:06.205Z,4.33
2019-03-10T00:43:17.199Z,5.13
2019-03-10T00:46:23.890Z,3.63
2019-03-10T00:49:30.696Z,4.87
2019-03-10T00:52:20.301Z,3.37
2019-03-10T00:54:48.169Z,3.47
2019-03-10T00:57:16.878Z,3.20
2019-03-10T00:59:45.723Z,6.47
2019-03-10T01:02:14.055Z,3.83
2019-03-10T01:04:42.688Z,3.10
2019-03-10T01:07:10.975Z,2.50
2019-03-10T01:09:38.838Z,3.70
2019-03-10T01:12:07.182Z,2.37
2019-03-10T01:14:35.091Z,3.40
2019-03-10T01:17:03.094Z,4.33
2019-03-10T01:20:11.679Z,3.50
2019-03-10T01:22:58.982Z,2.70
2019-03-10T01:25:26.874Z,2.17
2019-03-10T01:27:54.723Z,1.33
2019-03-10T01:30:23.338Z,3.37
2019-03-10T01:33:30.005Z,2.97
2019-03-10T01:35:58.583Z,3.33
2019-03-10T01:38:26.962Z,4.53
2019-03-10T01:40:55.678Z,2.23
2019-03-10T01:43:23.960Z,3.43
2019-03-10T01:45:52.203Z,2.67
2019-03-10T01:48:20.494Z,1.73
2019-03-10T01:50:49.180Z,1.30
2019-03-10T01:53:25.285Z,2.77
2019-03-10T01:55:56.708Z,3.57
2019-03-10T01:58:43.920Z,2.33
2019-03-10T02:01:11.807Z,3.63
2019-03-10T02:03:40.264Z,4.13
2019-03-10T02:06:08.880Z,3.00
2019-03-10T02:08:37.749Z,1.77
2019-03-10T02:11:06.041Z,1.73
2019-03-10T02:13:34.030Z,1.97
2019-03-10T02:16:01.810Z,2.40
2019-03-10T02:18:30.385Z,4.93
2019-03-10T02:20:58.428Z,1.40
2019-03-10T02:23:26.684Z,4.50
2019-03-10T02:25:55.012Z,1.40
2019-03-10T02:28:23.294Z,3.17
2019-03-10T02:30:51.173Z,3.43
2019-03-10T02:33:19.485Z,1.70
2019-03-10T02:35:48.144Z,2.10
2019-03-10T02:38:16.465Z,2.40
2019-03-10T02:40:45.020Z,2.20
2019-03-10T02:43:12.901Z,1.77
2019-03-10T02:45:41.157Z,1.13
2019-03-10T02:48:09.168Z,3.90
2019-03-10T02:50:37.413Z,1.33
2019-03-10T02:53:06.020Z,1.37
2019-03-10T02:55:34.603Z,2.03
2019-03-10T02:58:03.289Z,1.57
2019-03-10T03:00:31.686Z,0.97
2019-03-10T03:02:59.703Z,1.13
2019-03-10T03:05:28.130Z,3.10
2019-03-10T03:07:56.723Z,1.63
2019-03-10T03:10:25.424Z,0.90
2019-03-10T03:12:53.356Z,2.57
2019-03-10T03:15:21.628Z,1.00
2019-03-10T03:17:50.315Z,2.30
2019-03-10T03:20:18.281Z,2.10
2019-03-10T03:22:46.709Z,3.07
2019-03-10T03:25:15.432Z,4.27
2019-03-10T03:27:43.700Z,2.37
2019-03-10T03:33:33.075Z,3.10
2019-03-10T03:36:07.905Z,2.20
2019-03-10T03:39:14.578Z,1.63
2019-03-10T03:41:42.392Z,0.80
2019-03-10T03:44:10.665Z,2.23
2019-03-10T03:46:39.042Z,1.93
2019-03-10T03:49:07.015Z,1.50
2019-03-10T03:51:35.254Z,1.87
2019-03-10T03:54:03.217Z,1.90
2019-03-10T03:56:30.822Z,2.20
2019-03-10T03:58:59.509Z,3.03
2019-03-10T04:04:29.902Z,3.33
2019-03-10T04:06:57.842Z,2.37
2019-03-10T04:09:26.591Z,1.90
2019-03-10T04:11:54.862Z,1.07
2019-03-10T04:14:22.845Z,1.33
2019-03-10T04:16:51.198Z,3.13
2019-03-10T04:19:19.533Z,1.63
2019-03-10T04:21:47.741Z,1.67
2019-03-10T04:24:16.074Z,1.20
2019-03-10T04:26:44.259Z,4.00
2019-03-10T04:29:12.930Z,1.70
2019-03-10T04:31:41.110Z,1.27
2019-03-10T04:34:09.798Z,3.20
2019-03-10T04:36:38.023Z,1.23
2019-03-10T04:39:07.093Z,1.53
2019-03-10T04:41:35.595Z,1.67
2019-03-10T04:44:04.163Z,1.60
2019-03-10T04:46:32.755Z,1.50
2019-03-10T04:49:01.342Z,1.87
2019-03-10T04:51:29.232Z,3.33
2019-03-10T04:53:57.390Z,3.97
2019-03-10T04:56:44.844Z,3.07
2019-03-10T04:59:25.456Z,1.30
2019-03-10T05:01:54.174Z,4.27
2019-03-10T05:04:22.495Z,1.63
2019-03-10T05:06:50.745Z,2.17
2019-03-10T05:09:19.328Z,4.87
2019-03-10T05:11:47.605Z,4.67
2019-03-10T05:14:16.244Z,5.87
2019-03-10T05:16:44.486Z,2.47
2019-03-10T05:19:13.065Z,2.47
2019-03-10T05:21:41.355Z,2.60
2019-03-10T05:24:12.184Z,2.93
2019-03-10T05:26:40.182Z,3.10
2019-03-10T05:29:08.553Z,3.70
2019-03-10T05:31:37.145Z,3.33
2019-03-10T05:34:05.303Z,3.87
2019-03-10T05:36:33.284Z,3.47
2019-03-10T05:39:01.995Z,4.77
2019-03-10T05:41:30.263Z,16.73
2019-03-10T05:44:38.863Z,3.63
2019-03-10T05:47:18.143Z,2.27
2019-03-10T05:49:46.789Z,2.97
2019-03-10T05:52:54.999Z,2.00
2019-03-10T05:58:03.438Z,1.43
2019-03-10T06:00:42.026Z,1.40
2019-03-10T06:03:08.886Z,2.17
2019-03-10T06:05:37.595Z,1.70
2019-03-10T06:08:05.612Z,2.90
2019-03-10T06:10:33.110Z,1.30
2019-03-10T06:13:01.026Z,1.60
2019-03-10T06:15:29.271Z,2.60
2019-03-10T06:17:57.146Z,1.17
2019-03-10T06:20:25.743Z,0.90
2019-03-10T06:22:54.143Z,0.70
2019-03-10T06:25:22.395Z,1.53
2019-03-10T06:27:50.445Z,0.70
2019-03-10T06:30:19.185Z,0.90
2019-03-10T06:32:47.759Z,1.90
2019-03-10T06:35:15.935Z,4.20
2019-03-10T06:37:43.975Z,4.03
2019-03-10T06:40:12.706Z,1.73
2019-03-10T06:42:41.085Z,0.83
2019-03-10T06:45:09.366Z,1.93
2019-03-10T06:47:38.057Z,1.77
2019-03-10T06:50:06.554Z,0.73
2019-03-10T06:52:35.046Z,1.10
2019-03-10T06:55:03.323Z,1.40
2019-03-10T06:57:31.534Z,0.60
2019-03-10T07:02:59.675Z,0.47
2019-03-10T07:05:40.090Z,0.67
2019-03-10T07:11:10.066Z,1.13
2019-03-10T07:13:39.629Z,0.60
2019-03-10T07:16:07.634Z,1.60
2019-03-10T07:18:35.632Z,0.63
2019-03-10T07:21:03.911Z,1.07
2019-03-10T07:23:32.531Z,2.93
2019-03-10T07:26:20.225Z,1.80
2019-03-10T07:29:07.771Z,0.50
2019-03-10T07:31:41.777Z,0.63
2019-03-10T07:34:29.583Z,1.00
2019-03-10T07:37:17.439Z,7.93
2019-03-10T07:39:51.186Z,0.70
2019-03-10T07:45:34.244Z,1.53
2019-03-10T07:48:21.782Z,2.50
2019-03-10T07:50:56.317Z,0.70
2019-03-10T07:53:43.712Z,2.30
2019-03-10T07:56:23.565Z,1.60
2019-03-10T08:02:12.489Z,1.97
2019-03-10T08:04:59.871Z,1.17
2019-03-10T08:07:47.670Z,0.70
2019-03-10T08:10:47.134Z,0.80
2019-03-10T08:13:34.870Z,2.50
2019-03-10T08:19:23.613Z,1.40
2019-03-10T08:22:11.384Z,3.63
2019-03-10T08:24:58.789Z,0.50
2019-03-10T08:27:46.486Z,1.30
2019-03-10T08:30:34.241Z,0.90
2019-03-10T08:33:21.594Z,1.37
2019-03-10T08:39:29.756Z,2.57
2019-03-10T08:42:20.615Z,3.00
2019-03-10T08:45:14.125Z,2.50
2019-03-10T08:48:01.655Z,1.47
2019-03-10T08:50:33.234Z,1.70
2019-03-10T08:53:41.896Z,1.30
2019-03-10T08:56:17.224Z,3.67
2019-03-10T08:59:04.951Z,0.70
2019-03-10T09:02:11.713Z,2.07
2019-03-10T09:04:45.525Z,0.63
2019-03-10T09:07:33.314Z,8.80
2019-03-10T09:10:33.023Z,1.87
2019-03-10T09:13:20.451Z,2.03
2019-03-10T09:19:09.342Z,3.03
2019-03-10T09:21:57.147Z,0.80
2019-03-10T09:24:56.334Z,1.47
2019-03-10T09:27:43.739Z,0.90
2019-03-10T09:33:51.837Z,0.97
2019-03-10T09:36:39.259Z,2.60
2019-03-10T09:39:48.287Z,1.83
2019-03-10T09:42:35.673Z,0.63
2019-03-10T09:45:23.088Z,27.10
2019-03-10T09:48:10.907Z,7.70
2019-03-10T09:51:19.580Z,8.23
2019-03-10T09:54:07.481Z,40.80
2019-03-10T09:57:16.121Z,26.40
2019-03-10T10:03:24.729Z,5.37
2019-03-10T10:06:24.207Z,1.37
2019-03-10T10:09:23.032Z,1.10
2019-03-10T10:12:13.607Z,0.70
2019-03-10T10:18:26.995Z,1.43
2019-03-10T10:21:14.916Z,2.03
2019-03-10T10:24:02.479Z,4.83
2019-03-10T10:26:49.924Z,1.00
2019-03-10T10:29:37.749Z,1.23
2019-03-10T10:35:26.346Z,0.80
2019-03-10T10:38:18.564Z,3.43
2019-03-10T10:41:09.871Z,1.30
2019-03-10T10:43:57.559Z,2.80
2019-03-10T10:46:37.386Z,1.20
2019-03-10T10:49:31.050Z,22.80
2019-03-10T10:54:50.474Z,5.83
2019-03-10T10:57:30.287Z,6.63
2019-03-10T11:00:37.096Z,5.07
2019-03-10T11:03:24.556Z,5.57
2019-03-10T11:06:12.306Z,2.23
2019-03-10T11:09:02.682Z,2.23
2019-03-10T11:11:55.976Z,2.33
2019-03-10T11:15:04.340Z,0.50
2019-03-10T11:17:52.200Z,1.20
2019-03-10T11:20:41.282Z,1.60
2019-03-10T11:23:28.005Z,2.50
2019-03-10T11:26:15.371Z,1.53
2019-03-10T11:29:04.059Z,1.57
2019-03-10T11:31:51.664Z,2.87
2019-03-10T11:37:48.088Z,2.97
2019-03-10T11:40:47.389Z,1.13
2019-03-10T11:43:35.284Z,1.23
2019-03-10T11:46:42.100Z,0.93
2019-03-10T11:49:29.872Z,0.50
2019-03-10T11:52:16.964Z,3.53
2019-03-10T11:55:00.422Z,2.77
2019-03-10T11:57:42.197Z,1.27
2019-03-10T12:00:18.872Z,0.97
2019-03-10T12:02:55.916Z,1.10
2019-03-10T12:05:39.710Z,0.70
2019-03-10T12:08:26.801Z,1.23
2019-03-10T12:11:06.486Z,0.80
2019-03-10T12:13:34.720Z,0.50
2019-03-10T12:18:44.171Z,1.23
2019-03-10T12:21:12.806Z,1.57
2019-03-10T12:23:41.040Z,0.60
2019-03-10T12:26:09.417Z,0.70
2019-03-10T12:28:37.865Z,0.40
2019-03-10T12:31:05.453Z,0.47
2019-03-10T12:33:33.410Z,0.50
2019-03-10T12:36:08.578Z,1.40
2019-03-10T12:38:36.562Z,1.20
2019-03-10T12:41:25.436Z,1.30
2019-03-10T12:43:53.982Z,3.37
2019-03-10T12:46:23.352Z,1.13
2019-03-10T12:48:51.879Z,1.80
2019-03-10T12:51:22.295Z,1.00
2019-03-10T12:54:02.548Z,0.93
2019-03-10T12:56:50.136Z,1.20
2019-03-10T12:59:18.416Z,0.50
2019-03-10T13:01:46.596Z,1.47
2019-03-10T13:04:14.602Z,1.83
2019-03-10T13:06:42.969Z,2.13
2019-03-10T13:12:12.859Z,1.30
2019-03-10T13:14:41.071Z,1.00
2019-03-10T13:17:09.316Z,1.60
2019-03-10T13:19:37.608Z,1.20
2019-03-10T13:22:06.313Z,1.47
2019-03-10T13:24:35.100Z,1.30
2019-03-10T13:27:04.103Z,2.57
2019-03-10T13:29:32.086Z,2.23
2019-03-10T13:32:00.463Z,1.27
2019-03-10T13:34:29.089Z,2.50
2019-03-10T13:36:57.895Z,1.00
2019-03-10T13:39:26.310Z,0.70
2019-03-10T13:41:55.062Z,2.80
2019-03-10T13:44:24.787Z,2.27
2019-03-10T13:47:03.769Z,1.43
2019-03-10T13:49:31.705Z,0.70
2019-03-10T13:52:00.422Z,0.80
2019-03-10T13:54:28.705Z,0.63
2019-03-10T13:56:58.272Z,2.30
2019-03-10T13:59:27.300Z,2.10
2019-03-10T14:01:54.926Z,1.20
2019-03-10T14:04:23.693Z,1.67
2019-03-10T14:06:51.938Z,1.30
2019-03-10T14:09:20.613Z,2.57
2019-03-10T14:11:49.354Z,2.77
2019-03-10T14:14:17.648Z,1.30
2019-03-10T14:19:48.054Z,3.17
2019-03-10T14:22:16.311Z,3.90
2019-03-10T14:24:44.314Z,3.90
2019-03-10T14:27:12.868Z,2.60
2019-03-10T14:29:41.257Z,2.20
2019-03-10T14:32:21.076Z,3.40
2019-03-10T14:34:49.433Z,2.93
2019-03-10T14:37:17.888Z,3.57
2019-03-10T14:39:46.217Z,3.17
2019-03-10T14:42:14.841Z,4.00
2019-03-10T14:44:43.205Z,1.60
2019-03-10T14:47:11.953Z,2.50
2019-03-10T14:49:40.431Z,1.87
2019-03-10T14:52:08.811Z,2.70
2019-03-10T14:54:37.688Z,2.30
2019-03-10T14:57:07.456Z,3.33
2019-03-10T14:59:36.229Z,4.37
2019-03-10T15:02:04.529Z,3.47
2019-03-10T15:04:33.262Z,4.03
2019-03-10T15:07:03.213Z,3.63
2019-03-10T15:09:41.538Z,3.53
2019-03-10T15:12:10.222Z,2.77
2019-03-10T15:14:39.421Z,1.90
2019-03-10T15:17:07.701Z,2.77
2019-03-10T15:19:36.462Z,5.67
2019-03-10T15:22:05.138Z,3.93
2019-03-10T15:24:33.497Z,3.40
2019-03-10T15:27:02.200Z,2.80
2019-03-10T15:29:31.585Z,5.03
2019-03-10T15:32:00.374Z,5.40
2019-03-10T15:34:29.687Z,4.23
2019-03-10T15:36:58.282Z,7.90
2019-03-10T15:39:27.465Z,5.70
2019-03-10T15:41:56.183Z,2.67
2019-03-10T15:44:25.333Z,4.50
2019-03-10T15:46:54.144Z,4.30
2019-03-10T15:49:22.546Z,2.97
2019-03-10T15:51:49.761Z,4.83
2019-03-10T15:54:18.212Z,2.97
2019-03-10T15:56:47.080Z,5.00
2019-03-10T15:59:14.952Z,6.63
2019-03-10T16:01:43.217Z,4.87
2019-03-10T16:04:30.942Z,4.13
2019-03-10T16:06:59.651Z,8.07
2019-03-10T16:09:30.007Z,13.33
2019-03-10T16:11:59.258Z,11.80
2019-03-10T16:14:28.207Z,11.77
2019-03-10T16:16:56.987Z,11.70
2019-03-10T16:22:06.150Z,25.40
2019-03-10T16:24:34.190Z,33.33
2019-03-10T16:27:01.904Z,18.63
2019-03-10T16:29:30.244Z,13.03
2019-03-10T16:31:59.157Z,18.53
2019-03-10T16:34:27.393Z,17.77
2019-03-10T16:36:56.217Z,20.00
2019-03-10T16:39:24.507Z,29.50
2019-03-10T16:41:52.411Z,28.83
2019-03-10T16:44:21.164Z,29.77
2019-03-10T16:46:49.255Z,40.53
2019-03-10T16:49:17.731Z,12.97
2019-03-10T16:51:46.121Z,10.70
2019-03-10T16:54:14.712Z,6.83
2019-03-10T16:56:42.662Z,12.20
2019-03-10T16:59:10.819Z,14.70
2019-03-10T17:01:38.752Z,8.63
2019-03-10T17:04:07.146Z,11.10
2019-03-10T17:06:35.426Z,7.43
2019-03-10T17:09:35.382Z,13.40
2019-03-10T17:12:03.687Z,19.63
2019-03-10T17:14:33.767Z,20.73
2019-03-10T17:17:02.392Z,11.77
2019-03-10T17:20:10.995Z,10.13
2019-03-10T17:22:38.802Z,16.27
2019-03-10T17:25:07.084Z,12.37
2019-03-10T17:27:35.169Z,11.60
2019-03-10T17:30:04.263Z,21.70
2019-03-10T17:32:32.602Z,11.07
2019-03-10T17:35:01.291Z,11.37
2019-03-10T17:37:29.789Z,9.93
2019-03-10T17:39:58.063Z,13.33
2019-03-10T17:42:26.404Z,13.93
2019-03-10T17:44:54.748Z,20.20
2019-03-10T17:47:26.739Z,23.60
2019-03-10T17:49:59.178Z,18.90
2019-03-10T17:52:28.067Z,18.80
2019-03-10T17:54:56.678Z,17.60
2019-03-10T17:57:25.416Z,17.37
2019-03-10T17:59:54.174Z,15.53
2019-03-10T18:02:22.538Z,12.03
2019-03-10T18:04:50.960Z,14.77
2019-03-10T18:07:18.809Z,17.57
2019-03-10T18:09:47.236Z,16.03
2019-03-10T18:12:16.720Z,20.43
2019-03-10T18:14:44.851Z,12.53
2019-03-10T18:17:13.560Z,12.73
2019-03-10T18:19:41.856Z,17.07
2019-03-10T18:22:10.947Z,12.23
2019-03-10T18:24:39.848Z,16.27
2019-03-10T18:27:08.532Z,17.07
2019-03-10T18:29:37.116Z,8.63
2019-03-10T18:32:05.914Z,13.37
2019-03-10T18:34:33.999Z,14.10
2019-03-10T18:37:03.032Z,13.67
2019-03-10T18:39:31.596Z,12.47
2019-03-10T18:42:00.448Z,10.67
2019-03-10T18:47:49.641Z,13.70
2019-03-10T18:50:31.772Z,10.17
2019-03-10T18:53:00.658Z,12.10
2019-03-10T18:58:30.013Z,7.83
2019-03-10T19:00:58.432Z,9.37
2019-03-10T19:03:27.097Z,10.87
2019-03-10T19:05:57.926Z,7.20
2019-03-10T19:08:26.376Z,11.87
2019-03-10T19:11:14.515Z,10.03
2019-03-10T19:13:43.285Z,4.03
2019-03-10T19:16:11.368Z,7.63
2019-03-10T19:18:40.099Z,7.90
2019-03-10T19:21:08.159Z,5.70
2019-03-10T19:23:36.317Z,5.87
2019-03-10T19:26:04.682Z,8.87
2019-03-10T19:31:54.272Z,4.23
2019-03-10T19:34:23.167Z,3.10
2019-03-10T19:36:57.375Z,4.67
2019-03-10T19:39:50.961Z,9.57
2019-03-10T19:42:20.274Z,5.53
2019-03-10T19:44:49.183Z,5.80
2019-03-10T19:47:36.349Z,4.07
2019-03-10T19:50:16.330Z,9.43
2019-03-10T19:52:56.645Z,9.03
2019-03-10T19:55:25.039Z,11.60
2019-03-10T19:57:53.431Z,7.70
2019-03-10T20:00:21.296Z,9.97
2019-03-10T20:02:49.178Z,9.13
2019-03-10T20:05:17.549Z,10.70
2019-03-10T20:07:46.394Z,11.23
2019-03-10T20:10:14.783Z,10.27
2019-03-10T20:12:43.472Z,5.93
2019-03-10T20:15:14.400Z,3.60
2019-03-10T20:18:23.247Z,10.97
2019-03-10T20:21:10.809Z,11.23
2019-03-10T20:23:39.497Z,7.43
2019-03-10T20:26:07.968Z,14.10
2019-03-10T20:28:36.260Z,10.20
2019-03-10T20:31:05.071Z,7.43
2019-03-10T20:33:33.451Z,8.80
2019-03-10T20:36:12.666Z,10.33
2019-03-10T20:38:41.461Z,13.43
2019-03-10T20:41:10.301Z,9.40
2019-03-10T20:43:38.734Z,11.47
2019-03-10T20:46:08.864Z,15.13
2019-03-10T20:48:37.731Z,9.60
2019-03-10T20:51:06.444Z,15.37
2019-03-10T20:53:34.886Z,12.17
2019-03-10T20:56:03.714Z,11.73
2019-03-10T21:01:34.172Z,13.23
2019-03-10T21:04:02.580Z,15.50
2019-03-10T21:06:31.842Z,8.07
2019-03-10T21:09:40.209Z,15.27
2019-03-10T21:12:08.939Z,14.20
2019-03-10T21:14:37.846Z,12.53
2019-03-10T21:17:08.922Z,12.33
2019-03-10T21:19:37.598Z,9.90
2019-03-10T21:22:07.219Z,11.03
2019-03-10T21:24:35.214Z,11.57
2019-03-10T21:27:05.005Z,13.97
2019-03-10T21:29:33.469Z,16.23
2019-03-10T21:32:02.220Z,15.27
2019-03-10T21:34:49.812Z,14.37
2019-03-10T21:37:49.159Z,12.87
2019-03-10T21:40:36.931Z,11.60
2019-03-10T21:43:06.101Z,23.17
2019-03-10T21:45:34.691Z,20.07
2019-03-10T21:48:03.288Z,16.70
2019-03-10T21:50:31.170Z,42.90
2019-03-10T21:52:59.943Z,17.67
2019-03-10T21:55:28.384Z,22.83
2019-03-10T21:57:56.976Z,13.50
2019-03-10T22:00:25.812Z,20.23
2019-03-10T22:02:54.183Z,12.93
2019-03-10T22:05:22.772Z,14.83
2019-03-10T22:07:51.547Z,20.63
2019-03-10T22:13:16.466Z,17.03
2019-03-10T22:15:44.448Z,22.83
2019-03-10T22:18:20.613Z,25.67
2019-03-10T22:20:48.691Z,16.47
2019-03-10T22:23:35.698Z,21.57
2019-03-10T22:26:04.405Z,13.30
2019-03-10T22:28:32.607Z,17.20
2019-03-10T22:34:22.340Z,17.67
2019-03-10T22:36:51.463Z,17.70
2019-03-10T22:39:20.333Z,23.90
2019-03-10T22:42:09.968Z,15.33
2019-03-10T22:44:38.998Z,11.60
2019-03-10T22:50:35.147Z,21.87
2019-03-10T22:53:03.545Z,16.90
2019-03-10T22:55:31.818Z,13.47
2019-03-10T22:58:00.521Z,9.70
2019-03-10T23:00:47.271Z,17.43
2019-03-10T23:03:15.626Z,23.33
2019-03-10T23:05:43.783Z,15.50
2019-03-10T23:08:52.491Z,14.03
2019-03-10T23:11:21.314Z,10.53
2019-03-10T23:13:50.159Z,13.17
2019-03-10T23:16:18.643Z,14.07
2019-03-10T23:18:47.054Z,17.77
2019-03-10T23:21:15.412Z,11.77
2019-03-10T23:23:43.333Z,17.53
2019-03-10T23:26:11.678Z,12.93
2019-03-10T23:28:39.578Z,11.73
2019-03-10T23:31:08.086Z,12.07
2019-03-10T23:33:36.758Z,17.00
2019-03-10T23:36:04.713Z,22.13
2019-03-10T23:38:32.925Z,13.50
2019-03-10T23:41:02.132Z,26.13
2019-03-10T23:43:31.278Z,43.73
2019-03-10T23:45:59.572Z,21.67
2019-03-10T23:48:47.198Z,18.80
2019-03-10T23:51:34.541Z,31.33
2019-03-10T23:54:03.125Z,20.07
2019-03-10T23:56:31.486Z,14.93
2019-03-10T23:59:19.230Z,21.57
